Time;durP1;ratioP1;P1;durP2;ratioP2;P2;SDS_P1;SDS_P2;PMS_P1;PMS_P2;Temp;Humidity;BMP_temperature;BMP_pressure;BME280_temperature;BME280_humidity;BME280_pressure;Samples;Min_cycle;Max_cycle;Signal;HPM_P1;HPM_P2
2021/01/15 00:01:00;;;;;;;3.08;1.52;;;17.20;99.90;;;;;;5073819;28;20020;-62
2021/01/15 00:03:26;;;;;;;4.47;1.90;;;17.20;99.90;;;;;;5073439;28;20499;-62
2021/01/15 00:05:52;;;;;;;4.07;1.40;;;17.20;99.90;;;;;;5072968;28;20040;-62
2021/01/15 00:08:18;;;;;;;2.92;1.30;;;17.20;99.90;;;;;;5073269;28;20036;-62
2021/01/15 00:10:43;;;;;;;2.50;1.48;;;17.20;99.90;;;;;;5073430;28;20484;-61
2021/01/15 00:13:09;;;;;;;3.10;1.38;;;17.10;99.90;;;;;;5073772;28;20025;-60
2021/01/15 00:15:34;;;;;;;4.93;1.83;;;17.10;99.90;;;;;;5073481;28;20028;-60
2021/01/15 00:18:00;;;;;;;3.63;1.40;;;17.10;99.90;;;;;;5073992;28;20515;-63
2021/01/15 00:20:26;;;;;;;4.35;1.45;;;17.10;99.90;;;;;;5073339;28;20024;-62
2021/01/15 00:22:51;;;;;;;2.17;1.50;;;17.00;99.90;;;;;;5073415;28;20025;-61
2021/01/15 00:25:17;;;;;;;3.40;1.45;;;17.00;99.90;;;;;;5073389;28;20068;-61
2021/01/15 00:27:42;;;;;;;2.78;1.40;;;17.00;99.90;;;;;;5073315;28;20032;-62
2021/01/15 00:30:09;;;;;;;3.40;1.65;;;17.00;99.90;;;;;;5073670;28;20150;-61
2021/01/15 00:32:38;;;;;;;2.42;1.33;;;17.00;99.90;;;;;;5072599;28;20484;-61
2021/01/15 00:35:07;;;;;;;4.15;1.58;;;17.00;99.90;;;;;;5073598;28;20040;-62
2021/01/15 00:37:33;;;;;;;3.72;1.42;;;16.90;99.90;;;;;;5072908;28;20067;-62
2021/01/15 00:39:59;;;;;;;4.07;1.50;;;16.90;99.90;;;;;;5073124;28;20028;-62
2021/01/15 00:42:24;;;;;;;3.08;1.55;;;16.90;99.90;;;;;;5072625;28;20078;-61
2021/01/15 00:44:50;;;;;;;3.65;1.70;;;16.90;99.90;;;;;;5072645;28;20028;-62
2021/01/15 00:47:16;;;;;;;3.22;1.60;;;16.90;99.90;;;;;;5073351;28;20025;-63
2021/01/15 00:49:41;;;;;;;2.83;1.48;;;16.80;99.90;;;;;;5072411;28;20119;-62
2021/01/15 00:52:07;;;;;;;3.13;1.50;;;16.80;99.90;;;;;;5073172;28;20027;-62
2021/01/15 00:54:33;;;;;;;2.42;1.60;;;16.80;99.90;;;;;;5072917;28;20025;-62
2021/01/15 00:56:59;;;;;;;4.10;1.60;;;16.80;99.90;;;;;;5073232;28;20441;-62
2021/01/15 00:59:25;;;;;;;3.38;1.80;;;16.80;99.90;;;;;;5072429;28;20064;-62
2021/01/15 01:01:51;;;;;;;3.33;1.80;;;16.80;99.90;;;;;;5072262;28;20106;-62
2021/01/15 01:04:17;;;;;;;2.85;1.50;;;16.80;99.90;;;;;;5072911;28;20405;-63
2021/01/15 01:06:42;;;;;;;3.08;1.88;;;16.70;99.90;;;;;;5072365;28;20024;-62
2021/01/15 01:09:08;;;;;;;2.65;1.67;;;16.70;99.90;;;;;;5072513;28;20040;-62
2021/01/15 01:11:34;;;;;;;2.95;1.60;;;16.70;99.90;;;;;;5072030;28;20028;-62
2021/01/15 01:14:01;;;;;;;4.57;2.15;;;16.70;99.90;;;;;;5072313;28;20570;-62
2021/01/15 01:16:27;;;;;;;4.70;1.60;;;16.70;99.90;;;;;;5071181;28;20021;-62
2021/01/15 01:18:54;;;;;;;2.25;1.65;;;16.70;99.90;;;;;;5071974;28;20028;-62
2021/01/15 01:21:20;;;;;;;2.97;2.13;;;16.60;99.90;;;;;;5072392;28;20025;-61
2021/01/15 01:23:47;;;;;;;4.00;2.00;;;16.70;99.90;;;;;;5072173;28;20107;-62
2021/01/15 01:26:13;;;;;;;4.40;2.20;;;16.60;99.90;;;;;;5072078;28;20082;-62
2021/01/15 01:28:42;;;;;;;3.28;2.10;;;16.60;99.90;;;;;;5071812;28;20072;-61
2021/01/15 01:31:08;;;;;;;3.15;2.08;;;16.60;99.90;;;;;;5071795;28;20024;-61
2021/01/15 01:33:34;;;;;;;3.33;1.77;;;16.60;99.90;;;;;;5072303;28;20039;-62
2021/01/15 01:35:59;;;;;;;2.75;1.83;;;16.60;99.90;;;;;;5072613;28;20024;-62
2021/01/15 01:38:25;;;;;;;3.15;2.13;;;16.60;99.90;;;;;;5071994;28;20111;-61
2021/01/15 01:40:51;;;;;;;2.95;2.05;;;16.50;99.90;;;;;;5071157;28;20363;-62
2021/01/15 01:43:16;;;;;;;3.22;2.47;;;16.50;99.90;;;;;;5071928;28;20388;-63
2021/01/15 01:45:42;;;;;;;2.60;2.05;;;16.50;99.90;;;;;;5071269;28;20044;-63
2021/01/15 01:48:09;;;;;;;4.13;2.60;;;16.50;99.90;;;;;;5071865;28;20035;-62
2021/01/15 01:50:35;;;;;;;6.45;2.53;;;16.50;99.90;;;;;;5071837;28;20029;-62
2021/01/15 01:53:04;;;;;;;3.97;2.50;;;16.50;99.90;;;;;;5071692;28;20123;-61
2021/01/15 01:55:30;;;;;;;4.85;2.40;;;16.50;99.90;;;;;;5071207;28;20035;-60
2021/01/15 01:57:56;;;;;;;5.10;2.42;;;16.50;99.90;;;;;;5071447;28;20029;-63
2021/01/15 02:00:23;;;;;;;3.15;2.40;;;16.40;99.90;;;;;;5070377;28;20031;-62
2021/01/15 02:02:48;;;;;;;3.42;2.47;;;16.40;99.90;;;;;;5071593;28;20024;-62
2021/01/15 02:05:14;;;;;;;6.03;2.97;;;16.40;99.90;;;;;;5071692;28;20035;-62
2021/01/15 02:07:39;;;;;;;5.05;2.80;;;16.40;99.90;;;;;;5070938;28;20028;-62
2021/01/15 02:10:32;;;;;;;2.85;2.22;;;16.40;99.90;;;;;;5071328;28;20055;-63
2021/01/15 02:13:16;;;;;;;5.45;2.67;;;16.30;99.90;;;;;;5071366;28;20093;-62
2021/01/15 02:15:56;;;;;;;4.07;2.63;;;16.30;99.90;;;;;;5070863;28;20388;-62
2021/01/15 02:18:32;;;;;;;4.75;2.60;;;16.40;99.90;;;;;;5071689;28;20024;-62
2021/01/15 02:21:24;;;;;;;4.70;2.80;;;16.30;99.90;;;;;;5072066;28;20435;-62
2021/01/15 02:23:50;;;;;;;4.45;2.47;;;16.30;99.90;;;;;;5070759;28;20566;-63
2021/01/15 02:27:05;;;;;;;5.22;2.58;;;16.30;99.90;;;;;;5071380;28;20028;-62
2021/01/15 02:29:32;;;;;;;4.95;2.67;;;16.30;99.90;;;;;;5053369;28;20440;-63
2021/01/15 02:32:07;;;;;;;3.45;2.53;;;16.30;99.90;;;;;;5071395;28;20035;-62
2021/01/15 02:34:58;;;;;;;3.97;2.33;;;16.30;99.90;;;;;;5070839;28;20118;-62
2021/01/15 02:37:37;;;;;;;4.60;2.60;;;16.30;99.90;;;;;;5071027;28;20028;-61
2021/01/15 02:40:10;;;;;;;3.75;2.72;;;16.30;99.90;;;;;;5071064;28;20025;-62
2021/01/15 02:42:39;;;;;;;3.85;2.50;;;16.30;99.90;;;;;;5070811;28;20028;-61
2021/01/15 02:45:08;;;;;;;5.43;2.88;;;16.20;99.90;;;;;;5070830;28;20435;-61
2021/01/15 02:48:09;;;;;;;6.20;2.85;;;16.30;99.90;;;;;;5070902;28;20028;-61
2021/01/15 02:50:36;;;;;;;6.13;2.70;;;16.20;99.90;;;;;;5059451;28;20041;-61
2021/01/15 02:53:02;;;;;;;4.53;2.80;;;16.20;99.90;;;;;;5070956;28;20392;-61
2021/01/15 02:55:27;;;;;;;4.28;3.00;;;16.20;99.90;;;;;;5071533;28;20028;-61
2021/01/15 02:57:53;;;;;;;6.55;2.75;;;16.20;99.90;;;;;;5070578;28;20033;-62
2021/01/15 03:00:21;;;;;;;4.43;2.85;;;16.20;99.90;;;;;;5070583;28;20032;-62
2021/01/15 03:03:05;;;;;;;5.55;3.08;;;16.20;99.90;;;;;;5070656;28;20031;-61
2021/01/15 03:05:44;;;;;;;4.97;2.55;;;16.20;99.90;;;;;;5074855;28;20040;-62
2021/01/15 03:08:12;;;;;;;4.05;2.67;;;16.10;99.90;;;;;;5074771;28;20476;-62
2021/01/15 03:10:40;;;;;;;4.03;2.53;;;16.10;99.90;;;;;;5074188;28;20050;-63
2021/01/15 03:13:06;;;;;;;3.63;2.85;;;16.10;99.90;;;;;;5074599;28;20511;-63
2021/01/15 03:15:36;;;;;;;4.13;2.75;;;16.10;99.90;;;;;;5074579;28;20040;-62
2021/01/15 03:18:02;;;;;;;3.38;2.63;;;16.10;99.90;;;;;;5073601;28;20099;-59
2021/01/15 03:20:28;;;;;;;4.60;2.40;;;16.10;99.90;;;;;;5075135;28;20123;-63
2021/01/15 03:22:54;;;;;;;3.22;2.40;;;16.10;99.90;;;;;;5074371;28;20033;-63
2021/01/15 03:25:20;;;;;;;3.45;2.45;;;16.00;99.90;;;;;;5074335;28;20031;-63
2021/01/15 03:27:54;;;;;;;3.13;2.40;;;16.10;99.90;;;;;;5073122;28;20025;-63
2021/01/15 03:30:22;;;;;;;4.22;2.78;;;16.00;99.90;;;;;;5073970;28;20043;-63
2021/01/15 03:32:51;;;;;;;3.95;2.65;;;16.00;99.90;;;;;;5074025;28;20040;-63
2021/01/15 03:35:23;;;;;;;3.20;2.38;;;16.00;99.90;;;;;;5074248;28;20029;-63
2021/01/15 03:37:56;;;;;;;4.82;2.42;;;16.00;99.90;;;;;;5074382;28;20021;-64
2021/01/15 03:40:23;;;;;;;5.25;3.08;;;16.00;99.90;;;;;;5073452;28;20040;-63
2021/01/15 03:42:49;;;;;;;3.25;2.33;;;16.00;99.90;;;;;;5073833;28;20048;-63
2021/01/15 03:45:15;;;;;;;3.83;2.42;;;15.90;99.90;;;;;;5073861;28;20029;-63
2021/01/15 03:47:41;;;;;;;4.90;3.08;;;15.90;99.90;;;;;;5074021;28;20507;-63
2021/01/15 03:50:07;;;;;;;4.05;2.72;;;15.90;99.90;;;;;;5074359;28;20036;-63
2021/01/15 03:52:33;;;;;;;3.45;2.53;;;15.90;99.90;;;;;;5074235;28;20048;-62
2021/01/15 03:54:58;;;;;;;2.88;2.20;;;15.90;99.90;;;;;;5074290;28;20472;-62
2021/01/15 03:57:24;;;;;;;3.40;2.33;;;15.90;99.90;;;;;;5074019;28;20025;-62
2021/01/15 03:59:50;;;;;;;3.30;2.40;;;15.90;99.90;;;;;;5073628;28;20059;-62
2021/01/15 04:02:15;;;;;;;3.65;2.70;;;15.90;99.90;;;;;;5073600;28;20033;-62
2021/01/15 04:04:41;;;;;;;4.03;2.50;;;15.90;99.90;;;;;;5072989;28;20029;-63
2021/01/15 04:07:07;;;;;;;3.63;2.22;;;15.90;99.90;;;;;;5073549;28;20029;-61
2021/01/15 04:09:33;;;;;;;3.85;2.90;;;15.90;99.90;;;;;;5073103;28;20106;-61
2021/01/15 04:11:59;;;;;;;3.25;2.45;;;15.90;99.90;;;;;;5073563;28;20111;-59
2021/01/15 04:14:24;;;;;;;5.80;2.20;;;15.80;99.90;;;;;;5073600;28;20030;-62
2021/01/15 04:16:52;;;;;;;4.25;2.38;;;15.80;99.90;;;;;;5073591;28;20472;-61
2021/01/15 04:19:18;;;;;;;6.68;2.50;;;15.80;99.90;;;;;;5073668;28;20028;-61
2021/01/15 04:21:44;;;;;;;4.90;2.40;;;15.80;99.90;;;;;;5073535;28;20514;-62
2021/01/15 04:24:10;;;;;;;5.88;2.55;;;15.80;99.90;;;;;;5072021;28;20043;-63
2021/01/15 04:26:35;;;;;;;4.70;2.40;;;15.80;99.90;;;;;;5073400;28;20408;-63
2021/01/15 04:29:01;;;;;;;3.33;2.35;;;15.70;99.90;;;;;;5073974;28;20054;-63
2021/01/15 04:31:27;;;;;;;4.72;2.50;;;15.70;99.90;;;;;;5073503;28;20012;-63
2021/01/15 04:33:52;;;;;;;4.25;2.05;;;15.70;99.90;;;;;;5073203;28;20037;-61
2021/01/15 04:36:18;;;;;;;3.13;2.40;;;15.70;99.90;;;;;;5073278;28;20035;-61
2021/01/15 04:38:46;;;;;;;7.03;2.45;;;15.70;99.90;;;;;;5072745;28;20036;-60
2021/01/15 04:41:22;;;;;;;5.18;2.10;;;15.70;99.90;;;;;;5073106;28;20036;-62
2021/01/15 04:43:55;;;;;;;3.65;2.25;;;15.70;99.90;;;;;;5073401;28;20036;-60
2021/01/15 04:46:22;;;;;;;5.10;2.35;;;15.70;99.90;;;;;;5073262;28;20109;-61
2021/01/15 04:48:52;;;;;;;3.60;2.25;;;15.70;99.90;;;;;;5072715;28;20036;-63
2021/01/15 04:51:25;;;;;;;2.33;2.08;;;15.60;99.90;;;;;;5073257;28;20017;-63
2021/01/15 04:53:55;;;;;;;3.78;2.35;;;15.70;99.90;;;;;;5072616;28;20035;-63
2021/01/15 04:56:30;;;;;;;4.07;2.47;;;15.60;99.90;;;;;;5073039;28;20028;-63
2021/01/15 04:59:03;;;;;;;3.75;2.38;;;15.60;99.90;;;;;;5072681;28;20036;-62
2021/01/15 05:02:00;;;;;;;5.53;2.20;;;15.60;99.90;;;;;;5072507;28;20098;-62
2021/01/15 05:04:29;;;;;;;4.22;2.30;;;15.60;99.90;;;;;;5072009;28;20068;-62
2021/01/15 05:06:57;;;;;;;2.65;2.08;;;15.60;99.90;;;;;;5072626;28;20107;-63
2021/01/15 05:09:24;;;;;;;3.67;2.33;;;15.60;99.90;;;;;;5072287;28;20045;-62
2021/01/15 05:11:51;;;;;;;4.30;2.70;;;15.60;99.90;;;;;;5072272;28;20035;-62
2021/01/15 05:14:21;;;;;;;2.80;1.90;;;15.60;99.90;;;;;;5072669;28;20108;-63
2021/01/15 05:16:52;;;;;;;3.85;2.25;;;15.60;99.90;;;;;;5071483;28;20070;-62
2021/01/15 05:19:18;;;;;;;3.17;2.10;;;15.60;99.90;;;;;;5072611;28;20029;-62
2021/01/15 05:21:50;;;;;;;5.57;2.70;;;15.50;99.90;;;;;;5072262;28;20123;-62
2021/01/15 05:24:17;;;;;;;4.22;2.05;;;15.50;99.90;;;;;;5072631;28;20424;-62
2021/01/15 05:26:42;;;;;;;3.92;2.10;;;15.50;99.90;;;;;;5071326;28;20476;-63
2021/01/15 05:29:08;;;;;;;3.85;2.60;;;15.50;99.90;;;;;;5072527;28;20047;-63
2021/01/15 05:31:56;;;;;;;3.67;2.20;;;15.50;99.90;;;;;;5071624;28;20468;-61
2021/01/15 05:34:24;;;;;;;3.72;2.30;;;15.50;99.90;;;;;;5072100;28;20028;-62
2021/01/15 05:36:50;;;;;;;3.53;2.30;;;15.50;99.90;;;;;;5071697;28;20086;-60
2021/01/15 05:39:25;;;;;;;3.90;2.53;;;15.50;99.90;;;;;;5072184;28;20107;-61
2021/01/15 05:41:58;;;;;;;3.97;2.55;;;15.50;99.90;;;;;;5071500;28;20094;-61
2021/01/15 05:44:32;;;;;;;3.75;2.45;;;15.50;99.90;;;;;;5072164;28;20036;-61
2021/01/15 05:47:00;;;;;;;3.72;2.20;;;15.50;99.90;;;;;;5071351;28;20036;-61
2021/01/15 05:49:26;;;;;;;4.57;2.70;;;15.40;99.90;;;;;;5071582;28;20580;-62
2021/01/15 05:51:52;;;;;;;3.13;2.30;;;15.50;99.90;;;;;;5071795;28;20051;-62
2021/01/15 05:54:31;;;;;;;3.72;2.40;;;15.50;99.90;;;;;;5071680;28;20476;-62
2021/01/15 05:56:58;;;;;;;2.85;2.30;;;15.40;99.90;;;;;;5070977;28;20036;-61
2021/01/15 05:59:24;;;;;;;4.32;2.50;;;15.40;99.90;;;;;;5071834;28;20116;-61
2021/01/15 06:02:06;;;;;;;3.25;2.40;;;15.50;99.90;;;;;;5070940;28;20112;-62
2021/01/15 06:04:32;;;;;;;3.97;2.47;;;15.40;99.90;;;;;;5071746;28;20033;-61
2021/01/15 06:07:01;;;;;;;3.95;2.55;;;15.40;99.90;;;;;;5072176;28;20035;-62
2021/01/15 06:09:27;;;;;;;4.68;2.60;;;15.40;99.90;;;;;;5072197;28;20464;-61
2021/01/15 06:12:09;;;;;;;3.40;2.50;;;15.40;99.90;;;;;;5071281;28;20053;-61
2021/01/15 06:14:48;;;;;;;4.95;2.50;;;15.40;99.90;;;;;;5071094;28;20032;-60
2021/01/15 06:17:15;;;;;;;3.45;2.25;;;15.40;99.90;;;;;;5069073;28;20410;-62
2021/01/15 06:19:49;;;;;;;3.78;2.63;;;15.40;99.90;;;;;;5070856;28;20032;-61
2021/01/15 06:22:30;;;;;;;5.03;2.58;;;15.40;99.90;;;;;;5071665;28;20044;-59
2021/01/15 06:25:24;;;;;;;3.92;2.38;;;15.40;99.90;;;;;;5071319;28;20032;-61
2021/01/15 06:27:55;;;;;;;2.97;2.30;;;15.40;99.90;;;;;;5069189;28;20020;-61
2021/01/15 06:30:23;;;;;;;3.40;2.30;;;15.30;99.90;;;;;;5071433;28;20043;-61
2021/01/15 06:32:50;;;;;;;4.57;2.47;;;15.30;99.90;;;;;;5071351;28;20048;-61
2021/01/15 06:35:33;;;;;;;5.03;2.38;;;15.40;99.90;;;;;;5071055;28;20032;-61
2021/01/15 06:38:09;;;;;;;4.22;2.63;;;15.40;99.90;;;;;;5071248;28;20028;-62
2021/01/15 06:40:39;;;;;;;11.25;2.60;;;15.40;99.90;;;;;;5071022;28;20099;-62
2021/01/15 06:43:12;;;;;;;5.95;2.47;;;15.40;99.90;;;;;;5070334;28;20032;-64
2021/01/15 06:45:45;;;;;;;3.85;2.10;;;15.40;99.90;;;;;;5064514;28;20048;-62
2021/01/15 06:48:34;;;;;;;4.05;2.50;;;15.50;99.90;;;;;;5071147;28;20032;-63
2021/01/15 06:51:01;;;;;;;3.55;2.22;;;15.50;99.90;;;;;;5068017;28;20045;-63
2021/01/15 06:53:28;;;;;;;3.88;1.98;;;15.50;99.90;;;;;;5070706;28;20020;-65
2021/01/15 06:55:53;;;;;;;7.00;2.33;;;15.50;99.90;;;;;;5066661;28;20040;-65
2021/01/15 06:58:27;;;;;;;5.70;2.28;;;15.60;99.90;;;;;;5059751;28;20036;-64
2021/01/15 07:01:14;;;;;;;6.90;2.28;;;15.60;99.90;;;;;;5063310;28;20119;-66
2021/01/15 07:04:04;;;;;;;5.22;1.70;;;15.70;99.90;;;;;;5071223;28;20395;-62
2021/01/15 07:06:35;;;;;;;2.92;1.90;;;15.70;99.90;;;;;;5071391;28;20057;-61
2021/01/15 07:09:06;;;;;;;14.65;2.20;;;15.70;99.90;;;;;;5071369;28;20098;-61
2021/01/15 07:11:33;;;;;;;3.13;1.80;;;15.80;99.90;;;;;;5070475;28;20358;-61
2021/01/15 07:14:01;;;;;;;2.97;1.85;;;15.80;99.90;;;;;;5071521;28;20079;-61
2021/01/15 07:16:30;;;;;;;3.92;2.22;;;15.80;99.90;;;;;;5071023;28;20372;-61
2021/01/15 07:19:15;;;;;;;4.32;2.10;;;15.80;99.90;;;;;;5070706;28;20032;-61
2021/01/15 07:22:09;;;;;;;4.95;2.30;;;15.80;99.90;;;;;;5070739;28;20043;-61
2021/01/15 07:24:37;;;;;;;3.88;1.95;;;15.80;99.90;;;;;;5068611;28;20040;-61
2021/01/15 07:27:05;;;;;;;3.30;2.08;;;15.80;99.90;;;;;;5070225;28;20075;-61
2021/01/15 07:29:33;;;;;;;3.47;2.10;;;15.70;99.90;;;;;;5070284;28;20178;-60
2021/01/15 07:32:09;;;;;;;5.03;2.30;;;15.70;99.90;;;;;;5070619;28;20098;-60
2021/01/15 07:34:48;;;;;;;2.83;2.17;;;15.70;99.90;;;;;;5070298;28;20059;-60
2021/01/15 07:37:28;;;;;;;2.78;2.13;;;15.70;99.90;;;;;;5070890;28;20028;-59
2021/01/15 07:40:07;;;;;;;4.35;2.30;;;15.60;99.90;;;;;;5069377;28;20158;-58
2021/01/15 07:42:46;;;;;;;3.83;2.20;;;15.90;99.90;;;;;;5070369;28;20111;-60
2021/01/15 07:45:24;;;;;;;2.45;1.50;;;16.60;99.90;;;;;;5069152;28;20058;-60
2021/01/15 07:47:50;;;;;;;3.13;1.30;;;17.60;99.90;;;;;;5069704;28;20472;-63
2021/01/15 07:50:37;;;;;;;2.42;1.33;;;18.20;99.90;;;;;;5072293;28;20434;-61
2021/01/15 07:53:26;;;;;;;1.52;1.20;;;18.70;99.90;;;;;;5074458;28;20492;-64
2021/01/15 07:55:57;;;;;;;2.97;1.30;;;18.20;99.90;;;;;;5073829;28;20528;-60
2021/01/15 07:58:47;;;;;;;1.98;1.00;;;17.70;99.90;;;;;;5073636;28;20028;-60
2021/01/15 08:01:18;;;;;;;1.80;1.20;;;17.30;99.90;;;;;;5072107;28;20043;-59
2021/01/15 08:03:57;;;;;;;2.20;1.10;;;17.10;99.90;;;;;;5073118;28;20029;-60
2021/01/15 08:06:24;;;;;;;1.67;1.20;;;16.90;99.90;;;;;;5072140;28;20036;-60
2021/01/15 08:08:57;;;;;;;1.98;1.10;;;16.80;99.90;;;;;;5073865;28;20093;-60
2021/01/15 08:11:24;;;;;;;1.88;0.93;;;16.70;99.90;;;;;;5074000;28;20056;-60
2021/01/15 08:13:49;;;;;;;1.52;0.90;;;16.70;99.90;;;;;;5074067;28;20478;-59
2021/01/15 08:16:15;;;;;;;1.73;1.05;;;16.60;99.90;;;;;;5073486;28;20055;-58
2021/01/15 08:18:43;;;;;;;2.35;1.10;;;16.60;99.90;;;;;;5073440;28;20108;-60
2021/01/15 08:21:09;;;;;;;1.90;0.93;;;16.60;99.90;;;;;;5072210;28;20488;-62
2021/01/15 08:23:34;;;;;;;6.38;1.20;;;16.50;99.90;;;;;;5070786;28;20032;-64
2021/01/15 08:26:00;;;;;;;1.45;0.90;;;16.60;99.90;;;;;;5073656;28;20035;-63
2021/01/15 08:28:26;;;;;;;1.95;0.73;;;17.20;99.90;;;;;;5073780;28;20024;-64
2021/01/15 08:31:03;;;;;;;1.60;1.10;;;17.90;99.90;;;;;;5073117;28;20195;-63
2021/01/15 08:33:29;;;;;;;3.20;0.85;;;18.20;99.90;;;;;;5073924;28;20020;-63
2021/01/15 08:35:59;;;;;;;1.77;0.90;;;17.90;99.90;;;;;;5071853;28;20028;-64
2021/01/15 08:38:36;;;;;;;2.10;1.20;;;17.60;99.90;;;;;;5072636;28;20380;-64
2021/01/15 08:41:13;;;;;;;1.90;0.93;;;17.40;99.90;;;;;;5071338;28;20029;-65
2021/01/15 08:43:39;;;;;;;4.03;0.90;;;17.20;99.90;;;;;;5073516;28;20078;-64
2021/01/15 08:46:05;;;;;;;4.07;1.30;;;17.10;99.90;;;;;;5073493;28;20029;-64
2021/01/15 08:48:31;;;;;;;1.75;1.00;;;17.10;99.90;;;;;;5073160;28;20041;-64
2021/01/15 08:51:07;;;;;;;1.42;0.90;;;17.00;99.90;;;;;;5073165;28;20558;-65
2021/01/15 08:54:04;;;;;;;1.58;1.08;;;17.00;99.90;;;;;;5073275;28;20075;-64
2021/01/15 08:56:35;;;;;;;4.45;1.00;;;17.00;99.90;;;;;;5073537;28;20067;-65
2021/01/15 08:59:01;;;;;;;1.33;0.82;;;16.90;99.90;;;;;;5073415;28;20052;-66
2021/01/15 09:01:30;;;;;;;1.95;0.70;;;17.00;99.90;;;;;;5070326;28;20055;-65
2021/01/15 09:04:04;;;;;;;1.10;0.65;;;17.10;99.90;;;;;;5070871;28;20042;-66
2021/01/15 09:06:29;;;;;;;;;;;17.80;99.90;;;;;;5073514;28;20036;-65
2021/01/15 09:08:57;;;;;;;2.22;0.70;;;18.40;99.90;;;;;;5072254;28;19924;-65
2021/01/15 09:11:28;;;;;;;1.33;0.80;;;18.20;99.90;;;;;;5071040;28;20027;-65
2021/01/15 09:13:54;;;;;;;0.98;0.70;;;17.90;99.90;;;;;;5071392;28;20116;-64
2021/01/15 09:16:24;;;;;;;1.10;0.70;;;17.70;99.90;;;;;;5071762;28;20098;-63
2021/01/15 09:18:51;;;;;;;3.50;0.73;;;17.60;99.90;;;;;;5066331;28;20074;-63
2021/01/15 09:21:17;;;;;;;1.25;0.60;;;17.50;99.90;;;;;;5072793;28;20029;-62
2021/01/15 09:23:43;;;;;;;1.25;0.73;;;17.50;99.90;;;;;;5072455;28;20029;-68
2021/01/15 09:26:09;;;;;;;1.75;0.88;;;17.40;99.90;;;;;;5072691;28;20031;-63
2021/01/15 09:28:34;;;;;;;1.95;0.90;;;17.40;99.90;;;;;;5056362;28;20541;-63
2021/01/15 09:31:00;;;;;;;1.33;0.88;;;17.40;99.90;;;;;;5055663;28;20028;-63
2021/01/15 09:33:25;;;;;;;1.77;1.00;;;17.30;99.90;;;;;;5071363;28;20044;-69
2021/01/15 09:35:54;;;;;;;1.75;1.00;;;17.50;99.90;;;;;;5072210;28;20358;-61
2021/01/15 09:38:20;;;;;;;3.25;1.20;;;18.10;99.90;;;;;;5068583;28;20304;-63
2021/01/15 09:40:46;;;;;;;1.85;1.10;;;18.70;99.90;;;;;;5067002;28;20111;-67
2021/01/15 09:43:11;;;;;;;2.58;1.20;;;19.10;99.90;;;;;;5068067;28;20133;-64
2021/01/15 09:45:37;;;;;;;1.92;1.20;;;18.90;99.90;;;;;;5070726;28;20016;-64
2021/01/15 09:48:09;;;;;;;2.85;1.25;;;18.50;99.90;;;;;;5071714;28;20147;-64
2021/01/15 09:50:34;;;;;;;2.95;1.40;;;18.20;99.90;;;;;;5054403;28;20044;-63
2021/01/15 09:53:00;;;;;;;1.80;1.20;;;18.10;99.90;;;;;;5052573;28;20029;-63
2021/01/15 09:55:26;;;;;;;2.53;1.25;;;17.90;99.90;;;;;;5052245;28;20477;-63
2021/01/15 09:57:51;;;;;;;3.63;1.10;;;17.90;99.90;;;;;;5051929;28;20029;-64
2021/01/15 10:00:17;;;;;;;2.45;1.27;;;17.80;99.90;;;;;;5052116;28;20029;-63
2021/01/15 10:02:43;;;;;;;1.92;1.10;;;17.80;99.90;;;;;;5051867;28;20079;-64
2021/01/15 10:05:09;;;;;;;2.13;1.00;;;17.80;99.90;;;;;;5051925;28;20032;-64
2021/01/15 10:07:34;;;;;;;1.42;0.85;;;17.70;99.90;;;;;;5052756;28;20063;-64
2021/01/15 10:10:00;;;;;;;2.17;1.00;;;17.70;99.90;;;;;;5068077;28;20051;-62
2021/01/15 10:12:26;;;;;;;1.63;0.90;;;17.60;99.90;;;;;;5071145;28;20024;-66
2021/01/15 10:14:51;;;;;;;1.48;0.80;;;17.60;99.90;;;;;;5071642;28;20359;-69
2021/01/15 10:17:17;;;;;;;2.13;1.20;;;17.60;99.90;;;;;;5071886;28;20490;-65
2021/01/15 10:19:42;;;;;;;1.27;0.75;;;17.60;99.90;;;;;;5071485;28;20025;-66
2021/01/15 10:22:08;;;;;;;1.88;0.88;;;17.60;99.90;;;;;;5071739;28;20408;-65
2021/01/15 10:24:34;;;;;;;1.60;0.80;;;17.50;99.90;;;;;;5071415;28;20020;-62
2021/01/15 10:27:00;;;;;;;1.60;1.10;;;17.50;99.90;;;;;;5072006;28;20055;-62
2021/01/15 10:29:25;;;;;;;1.90;0.90;;;17.50;99.90;;;;;;5071713;28;20033;-62
2021/01/15 10:31:54;;;;;;;1.70;0.88;;;17.40;99.90;;;;;;5070615;28;20866;-63
2021/01/15 10:34:24;;;;;;;1.67;0.77;;;17.40;99.90;;;;;;5071603;28;20035;-63
2021/01/15 10:36:51;;;;;;;1.20;0.63;;;17.80;99.90;;;;;;5071283;28;20121;-63
2021/01/15 10:39:18;;;;;;;1.38;0.70;;;18.60;99.90;;;;;;5071284;28;20384;-62
2021/01/15 10:41:45;;;;;;;0.80;0.60;;;19.20;99.90;;;;;;5071262;28;20052;-62
2021/01/15 10:44:14;;;;;;;0.73;0.47;;;19.70;99.90;;;;;;5069240;28;20036;-64
2021/01/15 10:46:43;;;;;;;1.13;0.60;;;20.10;99.90;;;;;;5069073;28;20117;-63
2021/01/15 10:49:11;;;;;;;0.70;0.40;;;20.50;99.90;;;;;;5070240;28;20086;-62
2021/01/15 10:51:47;;;;;;;0.90;0.47;;;20.80;99.90;;;;;;5070621;28;20491;-64
2021/01/15 10:54:13;;;;;;;1.15;0.40;;;20.90;99.90;;;;;;5071420;28;20052;-64
2021/01/15 10:56:44;;;;;;;0.85;0.43;;;21.30;99.90;;;;;;5071038;28;20504;-63
2021/01/15 10:59:10;;;;;;;0.60;0.40;;;21.60;99.90;;;;;;5071491;28;20369;-63
2021/01/15 11:01:39;;;;;;;0.93;0.30;;;21.80;99.90;;;;;;5071143;28;20025;-62
2021/01/15 11:04:06;;;;;;;0.60;0.40;;;21.90;99.90;;;;;;5069330;28;20040;-63
2021/01/15 11:06:43;;;;;;;0.38;0.28;;;22.10;99.90;;;;;;5049825;28;20025;-64
2021/01/15 11:09:11;;;;;;;0.50;0.30;;;22.50;99.70;;;;;;5053150;28;20041;-63
2021/01/15 11:11:42;;;;;;;0.90;0.38;;;22.80;99.40;;;;;;5071023;28;20104;-67
2021/01/15 11:14:08;;;;;;;0.77;0.40;;;22.50;99.90;;;;;;5071299;28;20111;-63
2021/01/15 11:16:34;;;;;;;0.70;0.50;;;21.90;99.90;;;;;;5070072;28;20052;-63
2021/01/15 11:18:59;;;;;;;0.88;0.52;;;21.30;99.90;;;;;;5073607;28;20506;-63
2021/01/15 11:21:26;;;;;;;0.98;0.60;;;21.00;99.90;;;;;;5091348;28;20100;-64
2021/01/15 11:23:54;;;;;;;2.85;1.30;;;20.70;99.90;;;;;;5091098;28;20404;-61
2021/01/15 11:26:28;;;;;;;1.90;1.20;;;20.40;99.00;;;;;;5063138;28;20029;-60
2021/01/15 11:28:54;;;;;;;2.22;1.35;;;20.50;99.70;;;;;;5067294;28;20145;-60
2021/01/15 11:31:20;;;;;;;2.30;1.38;;;21.10;97.80;;;;;;5074955;28;20099;-61
2021/01/15 11:33:47;;;;;;;1.60;1.27;;;21.50;96.50;;;;;;5069954;28;20366;-61
2021/01/15 11:36:13;;;;;;;2.67;1.25;;;21.70;95.50;;;;;;5074637;28;20031;-61
2021/01/15 11:38:39;;;;;;;2.67;1.50;;;21.90;94.70;;;;;;5074031;28;20111;-61
2021/01/15 11:41:05;;;;;;;2.00;1.63;;;21.70;95.20;;;;;;5074078;28;20069;-61
2021/01/15 11:43:35;;;;;;;2.50;1.70;;;21.30;95.20;;;;;;5093234;28;20024;-61
2021/01/15 11:46:02;;;;;;;2.05;1.58;;;21.00;95.80;;;;;;5089896;28;20029;-64
2021/01/15 11:48:29;;;;;;;2.40;1.60;;;20.70;96.20;;;;;;5072462;28;20492;-62
2021/01/15 11:50:55;;;;;;;3.17;1.60;;;20.50;96.50;;;;;;5066818;28;20108;-64
2021/01/15 11:53:22;;;;;;;2.00;1.48;;;20.30;96.80;;;;;;5057612;28;20028;-61
2021/01/15 11:55:50;;;;;;;2.17;1.52;;;20.20;97.00;;;;;;5074074;28;20029;-60
2021/01/15 11:58:16;;;;;;;1.90;1.30;;;20.00;97.10;;;;;;5074338;28;20477;-62
2021/01/15 12:00:41;;;;;;;1.73;1.40;;;19.90;97.30;;;;;;5072588;28;20048;-61
2021/01/15 12:03:07;;;;;;;2.83;1.40;;;19.80;97.50;;;;;;5074386;28;20025;-61
2021/01/15 12:05:32;;;;;;;1.95;1.60;;;19.70;97.60;;;;;;5074026;28;20044;-62
2021/01/15 12:07:58;;;;;;;3.38;1.55;;;19.60;97.80;;;;;;5072537;28;20349;-63
2021/01/15 12:10:24;;;;;;;2.42;1.38;;;19.50;97.90;;;;;;5066533;28;20037;-62
2021/01/15 12:12:49;;;;;;;2.22;1.40;;;19.40;98.00;;;;;;5078719;28;20469;-67
2021/01/15 12:15:15;;;;;;;2.03;1.27;;;19.40;98.10;;;;;;5055044;28;20031;-65
2021/01/15 12:17:41;;;;;;;2.50;1.17;;;19.30;98.20;;;;;;5071967;28;20042;-67
2021/01/15 12:20:07;;;;;;;1.75;1.40;;;19.30;98.40;;;;;;5073988;28;20078;-67
2021/01/15 12:22:32;;;;;;;2.03;1.20;;;19.20;98.40;;;;;;5072450;28;20119;-68
2021/01/15 12:24:58;;;;;;;1.65;1.42;;;19.20;98.50;;;;;;5074099;28;20108;-67
2021/01/15 12:27:24;;;;;;;2.15;1.52;;;19.10;98.50;;;;;;5073874;28;20477;-61
2021/01/15 12:29:49;;;;;;;1.98;1.50;;;19.10;98.50;;;;;;5073357;28;20108;-61
2021/01/15 12:32:15;;;;;;;2.00;1.40;;;19.00;98.70;;;;;;5073787;28;20051;-63
2021/01/15 12:34:41;;;;;;;2.05;1.33;;;19.00;98.70;;;;;;5073389;28;20382;-68
2021/01/15 12:37:06;;;;;;;2.25;1.45;;;18.90;98.70;;;;;;5073601;28;20108;-68
2021/01/15 12:39:32;;;;;;;2.15;1.60;;;18.90;98.60;;;;;;5073116;28;20028;-63
2021/01/15 12:41:57;;;;;;;2.33;1.50;;;18.90;98.70;;;;;;5073739;28;20020;-67
2021/01/15 12:44:23;;;;;;;2.28;1.45;;;18.90;98.70;;;;;;5073152;28;20029;-69
2021/01/15 12:46:49;;;;;;;3.95;1.55;;;18.80;98.70;;;;;;5073149;28;20024;-66
2021/01/15 12:49:14;;;;;;;2.22;1.63;;;18.70;98.70;;;;;;5073336;28;20082;-62
2021/01/15 12:51:43;;;;;;;3.75;1.80;;;18.70;98.90;;;;;;5073184;28;20098;-64
2021/01/15 12:54:09;;;;;;;2.60;1.75;;;18.60;98.90;;;;;;5073347;28;20111;-61
2021/01/15 12:56:36;;;;;;;1.70;1.35;;;18.60;98.90;;;;;;5073266;28;20070;-61
2021/01/15 12:59:02;;;;;;;2.50;1.58;;;18.50;98.90;;;;;;5073265;28;20420;-61